Time;durP1;ratioP1;P1;durP2;ratioP2;P2;SDS_P1;SDS_P2;PMS_P1;PMS_P2;Temp;Humidity;BMP_temperature;BMP_pressure;BME280_temperature;BME280_humidity;BME280_pressure;Samples;Min_cycle;Max_cycle;Signal;HPM_P1;HPM_P2
2023/05/09 00:02:27;;;;;;;5.55;4.03;;;;;;;9.60;54.78;101785.88;7394951;19;20087;-66
2023/05/09 00:04:55;;;;;;;7.47;3.90;;;;;;;9.55;54.84;101792.84;7393695;19;20014;-66
2023/05/09 00:07:24;;;;;;;4.70;4.13;;;;;;;9.51;54.98;101792.88;7394028;19;20040;-65
2023/05/09 00:09:52;;;;;;;5.38;3.83;;;;;;;9.46;55.20;101787.63;7394327;19;20079;-66
2023/05/09 00:12:21;;;;;;;6.00;3.78;;;;;;;9.43;55.39;101793.75;7393928;19;20486;-66
2023/05/09 00:14:50;;;;;;;5.68;4.28;;;;;;;9.38;55.43;101785.00;7393809;19;20123;-66
2023/05/09 00:17:21;;;;;;;5.07;4.43;;;;;;;9.36;55.50;101791.13;7393697;19;20034;-66
2023/05/09 00:19:51;;;;;;;7.90;3.75;;;;;;;9.29;55.72;101796.34;7395773;19;20091;-66
2023/05/09 00:22:21;;;;;;;6.75;4.43;;;;;;;9.26;55.88;101790.25;7397701;19;20445;-66
2023/05/09 00:24:49;;;;;;;6.57;4.30;;;;;;;9.24;56.04;101795.47;7399933;19;20074;-66
2023/05/09 00:27:18;;;;;;;5.75;4.20;;;;;;;9.18;56.18;101781.53;7399342;19;20351;-65
2023/05/09 00:29:46;;;;;;;5.95;4.28;;;;;;;9.19;56.16;101788.50;7399578;19;20411;-65
2023/05/09 00:32:15;;;;;;;4.95;4.18;;;;;;;9.18;56.36;101797.22;7402919;19;20074;-68
2023/05/09 00:34:46;;;;;;;6.95;4.47;;;;;;;9.17;56.42;101801.56;7400923;19;20427;-66
2023/05/09 00:37:17;;;;;;;7.03;4.13;;;;;;;9.16;56.50;101802.44;7405293;19;20489;-65
2023/05/09 00:39:45;;;;;;;5.25;4.00;;;;;;;9.16;56.71;101798.97;7405429;19;20022;-66
2023/05/09 00:42:14;;;;;;;5.68;4.00;;;;;;;9.15;56.58;101787.63;7417620;19;20015;-64
2023/05/09 00:44:42;;;;;;;5.70;4.00;;;;;;;9.13;56.69;101773.66;7414508;19;20014;-65
2023/05/09 00:47:10;;;;;;;4.85;4.20;;;;;;;9.15;56.77;101781.50;7416741;19;20027;-66
2023/05/09 00:49:40;;;;;;;5.50;3.95;;;;;;;9.15;56.68;101777.16;7403344;19;20074;-66
2023/05/09 00:52:11;;;;;;;5.63;4.28;;;;;;;9.11;57.27;101767.53;7401641;19;20022;-66
2023/05/09 00:54:39;;;;;;;9.20;4.53;;;;;;;9.14;56.68;101770.16;7408096;19;20014;-67
2023/05/09 00:57:08;;;;;;;5.47;4.55;;;;;;;9.13;56.68;101761.44;7402730;19;20026;-67
2023/05/09 00:59:36;;;;;;;5.10;4.18;;;;;;;9.13;56.76;101758.81;7402224;19;20481;-67
2023/05/09 01:02:05;;;;;;;6.97;3.95;;;;;;;9.12;56.99;101753.56;7399736;19;20085;-67
2023/05/09 01:04:34;;;;;;;8.32;4.20;;;;;;;9.11;56.90;101757.94;7400215;19;20015;-66
2023/05/09 01:07:08;;;;;;;5.60;4.03;;;;;;;9.11;56.93;101759.69;7401451;19;20377;-66
2023/05/09 01:09:48;;;;;;;6.30;4.45;;;;;;;9.10;56.84;101755.34;7399724;19;20018;-66
2023/05/09 01:12:26;;;;;;;5.55;4.88;;;;;;;9.07;57.00;101761.44;7399634;19;20022;-66
2023/05/09 01:15:03;;;;;;;5.97;4.20;;;;;;;9.07;56.80;101760.56;7399043;19;20019;-66
2023/05/09 01:17:39;;;;;;;6.97;4.45;;;;;;;9.04;56.68;101761.44;7399796;19;20102;-66
2023/05/09 01:20:16;;;;;;;5.68;4.43;;;;;;;9.03;56.83;101764.06;7399366;19;20031;-66
2023/05/09 01:22:50;;;;;;;5.68;4.65;;;;;;;9.02;56.81;101764.91;7398486;19;20021;-67
2023/05/09 01:25:45;;;;;;;6.43;4.03;;;;;;;8.99;57.01;101757.06;7401109;19;20517;-66
2023/05/09 01:28:36;;;;;;;5.43;3.88;;;;;;;8.96;56.68;101750.97;7398612;19;20026;-66
2023/05/09 01:31:09;;;;;;;6.43;4.10;;;;;;;8.94;56.71;101755.31;7398335;19;20372;-66
2023/05/09 01:33:41;;;;;;;9.98;4.45;;;;;;;8.92;56.69;101745.72;7395989;19;20022;-66
2023/05/09 01:36:16;;;;;;;7.07;4.40;;;;;;;8.90;56.68;101753.56;7400452;19;20494;-66
2023/05/09 01:38:46;;;;;;;5.32;3.95;;;;;;;8.86;56.49;101741.34;7401156;19;20014;-67
2023/05/09 01:41:18;;;;;;;5.82;4.07;;;;;;;8.85;56.35;101750.06;7399008;19;20025;-66
2023/05/09 01:43:49;;;;;;;4.82;3.78;;;;;;;8.82;56.38;101752.69;7398295;19;20521;-65
2023/05/09 01:46:23;;;;;;;5.30;3.45;;;;;;;8.81;56.57;101753.56;7398894;19;20022;-65
2023/05/09 01:48:53;;;;;;;5.00;3.80;;;;;;;8.77;56.49;101754.41;7398418;19;20462;-65
2023/05/09 01:51:23;;;;;;;4.70;4.03;;;;;;;8.76;56.50;101756.16;7398501;19;20429;-65
2023/05/09 01:53:54;;;;;;;9.93;4.18;;;;;;;8.69;56.58;101745.69;7398797;19;20021;-66
2023/05/09 01:56:25;;;;;;;6.43;3.90;;;;;;;8.71;56.55;101750.03;7399723;19;20015;-68
2023/05/09 01:58:55;;;;;;;7.78;3.95;;;;;;;8.70;56.36;101747.44;7400268;19;20018;-67
2023/05/09 02:01:27;;;;;;;6.97;3.75;;;;;;;8.67;56.73;101747.41;7401077;19;20014;-68
2023/05/09 02:03:57;;;;;;;6.85;4.25;;;;;;;8.64;56.62;101751.78;7401593;19;20025;-67
2023/05/09 02:06:28;;;;;;;9.30;4.30;;;;;;;8.61;56.48;101745.66;7401190;19;20015;-67
2023/05/09 02:08:58;;;;;;;4.63;3.85;;;;;;;8.58;56.76;101748.25;7400287;19;20038;-67
2023/05/09 02:11:26;;;;;;;6.32;4.22;;;;;;;8.54;56.60;101747.38;7399505;19;20014;-67
2023/05/09 02:13:55;;;;;;;6.32;3.78;;;;;;;8.50;56.84;101744.75;7398642;19;20021;-65
2023/05/09 02:16:26;;;;;;;5.38;3.50;;;;;;;8.45;57.00;101742.09;7398143;19;20019;-63
2023/05/09 02:18:55;;;;;;;5.38;4.13;;;;;;;8.40;57.21;101743.81;7398628;19;20035;-65
2023/05/09 02:21:23;;;;;;;5.47;3.50;;;;;;;8.37;57.21;101743.81;7397249;19;20019;-65
2023/05/09 02:23:52;;;;;;;5.60;4.00;;;;;;;8.31;57.46;101749.88;7396891;19;20432;-65
2023/05/09 02:26:21;;;;;;;5.47;3.85;;;;;;;8.26;57.33;101746.38;7402008;19;20026;-65
2023/05/09 02:28:51;;;;;;;6.93;4.20;;;;;;;8.22;57.60;101750.72;7400037;19;20095;-66
2023/05/09 02:31:23;;;;;;;7.75;4.55;;;;;;;8.17;57.64;101749.84;7401122;19;20022;-67
2023/05/09 02:33:56;;;;;;;8.40;4.63;;;;;;;8.13;57.73;101745.47;7401066;19;20019;-66
2023/05/09 02:36:26;;;;;;;7.95;4.25;;;;;;;8.09;58.02;101751.56;7399275;19;20014;-66
2023/05/09 02:38:55;;;;;;;7.70;4.18;;;;;;;8.04;58.22;101746.28;7400955;19;20010;-67
2023/05/09 02:41:24;;;;;;;4.85;3.90;;;;;;;7.98;58.01;101741.88;7397881;19;20049;-66
2023/05/09 02:43:52;;;;;;;4.82;4.28;;;;;;;7.94;58.41;101742.75;7396357;19;20465;-66
2023/05/09 02:46:21;;;;;;;6.57;4.20;;;;;;;7.90;58.29;101738.38;7396324;19;20022;-66
2023/05/09 02:48:50;;;;;;;8.00;4.70;;;;;;;7.83;58.38;101727.03;7398166;19;20019;-66
2023/05/09 02:51:21;;;;;;;7.18;3.88;;;;;;;7.78;58.70;101728.72;7396057;19;20011;-67
2023/05/09 02:53:49;;;;;;;7.32;4.18;;;;;;;7.75;58.74;101723.50;7396730;19;20087;-66
2023/05/09 02:56:18;;;;;;;6.07;4.25;;;;;;;7.68;58.91;101732.16;7396226;19;20078;-66
2023/05/09 02:58:50;;;;;;;8.48;4.85;;;;;;;7.65;59.05;101729.53;7395930;19;20014;-66
2023/05/09 03:01:18;;;;;;;6.35;4.30;;;;;;;7.60;58.78;101729.50;7395826;19;20351;-66
2023/05/09 03:03:47;;;;;;;5.60;4.22;;;;;;;7.56;59.08;101726.88;7395714;19;20018;-67
2023/05/09 03:06:15;;;;;;;6.82;4.53;;;;;;;7.50;59.13;101725.94;7397202;19;20014;-66
2023/05/09 03:08:46;;;;;;;5.57;4.05;;;;;;;7.46;59.21;101729.41;7398406;19;20021;-66
2023/05/09 03:11:15;;;;;;;5.68;4.32;;;;;;;7.43;59.30;101728.50;7397545;19;20446;-66
2023/05/09 03:13:43;;;;;;;6.05;4.57;;;;;;;7.41;59.34;101730.25;7395941;19;20071;-65
2023/05/09 03:16:15;;;;;;;8.07;4.68;;;;;;;7.36;59.79;101724.97;7395709;19;20082;-65
2023/05/09 03:18:44;;;;;;;6.20;3.92;;;;;;;7.32;59.56;101720.59;7395241;19;20018;-65
2023/05/09 03:21:12;;;;;;;5.78;3.80;;;;;;;7.28;59.70;101717.09;7395335;19;20014;-65
2023/05/09 03:23:41;;;;;;;6.05;4.50;;;;;;;7.22;60.05;101711.81;7396873;19;20022;-65
2023/05/09 03:26:12;;;;;;;8.25;4.97;;;;;;;7.21;60.34;101715.28;7394988;19;20595;-64
2023/05/09 03:28:40;;;;;;;6.50;4.00;;;;;;;7.16;60.06;101710.03;7396130;19;20022;-65
2023/05/09 03:31:09;;;;;;;6.45;4.15;;;;;;;7.12;60.20;101710.00;7395263;19;20436;-65
2023/05/09 03:33:37;;;;;;;6.18;4.88;;;;;;;7.09;60.27;101708.25;7395214;19;20571;-65
2023/05/09 03:36:06;;;;;;;5.53;4.35;;;;;;;7.07;60.37;101709.09;7395680;19;20026;-65
2023/05/09 03:38:35;;;;;;;6.15;4.35;;;;;;;7.04;60.74;101706.44;7396056;19;20019;-65
2023/05/09 03:41:03;;;;;;;6.60;4.53;;;;;;;7.01;60.56;101702.97;7395568;19;20014;-65
2023/05/09 03:43:34;;;;;;;5.50;4.28;;;;;;;6.96;61.21;101694.22;7395661;19;20427;-67
2023/05/09 03:46:03;;;;;;;7.35;4.53;;;;;;;6.94;61.14;101703.78;7396033;19;20031;-64
2023/05/09 03:48:31;;;;;;;7.03;4.57;;;;;;;6.92;60.93;101702.00;7395931;19;20023;-65
2023/05/09 03:51:00;;;;;;;8.40;4.80;;;;;;;6.90;61.23;101714.16;7394899;19;20545;-64
2023/05/09 03:53:28;;;;;;;6.53;4.78;;;;;;;6.88;61.47;101715.91;7394173;19;20081;-67
2023/05/09 03:55:56;;;;;;;8.23;4.50;;;;;;;6.86;61.29;101715.84;7392497;19;20102;-66
2023/05/09 03:58:25;;;;;;;7.80;4.40;;;;;;;6.83;61.31;101711.50;7394255;19;20086;-66
2023/05/09 04:00:56;;;;;;;6.32;4.13;;;;;;;6.83;61.41;101710.63;7395544;19;20086;-66
2023/05/09 04:03:25;;;;;;;7.88;4.40;;;;;;;6.82;61.56;101716.69;7395030;19;20050;-66
2023/05/09 04:05:54;;;;;;;8.75;5.72;;;;;;;6.81;61.57;101713.22;7393665;19;20386;-66
2023/05/09 04:08:22;;;;;;;5.70;4.60;;;;;;;6.80;61.38;101714.09;7394233;19;20031;-66
2023/05/09 04:10:51;;;;;;;5.97;4.00;;;;;;;6.79;61.45;101722.75;7395904;19;20090;-66
2023/05/09 04:13:19;;;;;;;5.68;4.22;;;;;;;6.77;61.52;101718.41;7394100;19;20014;-66
2023/05/09 04:15:48;;;;;;;6.28;3.90;;;;;;;6.78;61.67;101727.97;7397564;19;20035;-66
2023/05/09 04:18:19;;;;;;;8.25;4.93;;;;;;;6.78;61.74;101725.38;7398452;19;20010;-66
2023/05/09 04:20:47;;;;;;;6.00;4.32;;;;;;;6.75;61.85;101721.00;7399682;19;20035;-66
2023/05/09 04:23:16;;;;;;;7.22;4.20;;;;;;;6.76;61.80;101727.97;7394823;19;20022;-66
2023/05/09 04:25:44;;;;;;;7.30;4.80;;;;;;;6.77;61.71;101728.81;7393800;19;20482;-66
2023/05/09 04:28:13;;;;;;;10.10;4.88;;;;;;;6.78;61.99;101726.22;7395464;19;20011;-66
2023/05/09 04:30:41;;;;;;;5.28;4.05;;;;;;;6.78;61.97;101720.16;7392935;19;20078;-66
2023/05/09 04:33:10;;;;;;;7.25;4.93;;;;;;;6.78;62.02;101722.75;7392841;19;20078;-66
2023/05/09 04:35:41;;;;;;;5.15;4.32;;;;;;;6.78;62.00;101718.41;7392810;19;20351;-65
2023/05/09 04:38:10;;;;;;;6.28;4.13;;;;;;;6.78;62.07;101713.19;7396508;19;20082;-66
2023/05/09 04:40:38;;;;;;;6.88;4.10;;;;;;;6.79;62.13;101717.53;7394965;19;20027;-66
2023/05/09 04:43:07;;;;;;;8.60;4.13;;;;;;;6.81;62.01;101713.22;7394209;19;20426;-66
2023/05/09 04:45:35;;;;;;;5.95;4.07;;;;;;;6.83;61.99;101718.44;7392759;19;20070;-66
2023/05/09 04:48:04;;;;;;;6.72;4.35;;;;;;;6.85;62.40;101716.75;7393312;19;20043;-66
2023/05/09 04:50:32;;;;;;;6.22;4.10;;;;;;;6.88;62.12;101711.53;7394778;19;20082;-65
2023/05/09 04:53:03;;;;;;;5.03;4.53;;;;;;;6.90;62.20;101704.63;7394826;19;20447;-65
2023/05/09 04:55:32;;;;;;;5.95;3.70;;;;;;;6.93;62.14;101707.25;7392291;19;20086;-66
2023/05/09 04:58:00;;;;;;;4.47;3.95;;;;;;;6.96;62.25;101698.56;7392378;19;20091;-65
2023/05/09 05:00:29;;;;;;;6.05;4.05;;;;;;;6.99;62.40;101698.59;7394352;19;20079;-66
2023/05/09 05:02:57;;;;;;;6.68;4.43;;;;;;;7.03;62.30;101699.47;7392948;19;20018;-67
2023/05/09 05:05:26;;;;;;;8.45;5.03;;;;;;;7.08;62.38;101698.66;7393002;19;20498;-66
2023/05/09 05:07:55;;;;;;;7.30;4.57;;;;;;;7.10;62.39;101688.25;7399838;19;20081;-66
2023/05/09 05:10:26;;;;;;;8.88;4.70;;;;;;;7.16;62.09;101691.75;7399268;19;20094;-68
2023/05/09 05:12:54;;;;;;;6.60;4.53;;;;;;;7.23;62.04;101694.41;7399701;19;20022;-65
2023/05/09 05:15:22;;;;;;;5.22;4.18;;;;;;;7.28;61.93;101691.00;7398835;19;20074;-66
2023/05/09 05:17:57;;;;;;;7.35;4.78;;;;;;;7.35;61.88;101681.47;7398270;19;20415;-65
2023/05/09 05:20:26;;;;;;;19.00;10.70;;;;;;;7.37;61.60;101679.75;7408649;19;20019;-66
2023/05/09 05:22:56;;;;;;;12.93;7.55;;;;;;;7.46;61.71;101681.53;7406455;19;20050;-65
2023/05/09 05:25:27;;;;;;;13.30;6.95;;;;;;;7.53;61.95;101677.22;7399773;19;20015;-66
2023/05/09 05:27:56;;;;;;;8.27;5.28;;;;;;;7.60;61.78;101682.47;7399557;19;20083;-66
2023/05/09 05:30:24;;;;;;;5.18;4.10;;;;;;;7.68;61.51;101677.28;7403112;19;20154;-65
2023/05/09 05:32:53;;;;;;;5.90;4.03;;;;;;;7.76;61.51;101682.56;7404055;19;20019;-66
2023/05/09 05:35:22;;;;;;;6.63;3.88;;;;;;;7.81;61.33;101684.34;7401299;19;20078;-65
2023/05/09 05:37:50;;;;;;;8.68;4.32;;;;;;;7.87;60.96;101677.41;7399821;19;20022;-66
2023/05/09 05:40:19;;;;;;;6.45;4.60;;;;;;;8.00;61.39;101687.03;7408168;19;20031;-64
2023/05/09 05:42:50;;;;;;;6.40;3.95;;;;;;;8.11;61.41;101679.22;7408278;19;20037;-64
2023/05/09 05:45:19;;;;;;;9.02;4.00;;;;;;;8.25;60.60;101682.78;7411051;19;20026;-64
2023/05/09 05:47:47;;;;;;;7.90;3.80;;;;;;;8.36;60.57;101663.63;7412230;19;20033;-64
2023/05/09 05:50:23;;;;;;;6.50;3.70;;;;;;;8.45;60.11;101674.97;7408311;19;20028;-67
2023/05/09 05:52:51;;;;;;;7.70;4.30;;;;;;;8.62;59.53;101655.84;7403780;19;20078;-67
2023/05/09 05:55:20;;;;;;;4.93;4.10;;;;;;;8.71;58.92;101655.84;7400525;19;20035;-66
2023/05/09 05:57:51;;;;;;;5.15;3.70;;;;;;;8.77;58.43;101652.34;7402202;19;20070;-70
2023/05/09 06:00:20;;;;;;;4.85;3.50;;;;;;;8.85;57.89;101648.00;7403190;19;20032;-66
2023/05/09 06:02:48;;;;;;;4.38;3.25;;;;;;;8.94;57.63;101645.38;7403080;19;20375;-65
2023/05/09 06:05:17;;;;;;;8.75;4.15;;;;;;;9.04;56.96;101642.78;7399566;19;20018;-64
2023/05/09 06:07:45;;;;;;;5.13;3.65;;;;;;;9.13;56.36;101642.75;7399272;19;20506;-65
2023/05/09 06:10:14;;;;;;;7.05;3.50;;;;;;;9.21;55.99;101635.78;7398736;19;20090;-65
2023/05/09 06:12:43;;;;;;;6.78;3.53;;;;;;;9.31;55.19;101635.75;7399738;19;20018;-66
2023/05/09 06:15:14;;;;;;;5.45;3.70;;;;;;;9.38;54.60;101633.09;7399300;19;20046;-66
2023/05/09 06:17:43;;;;;;;4.40;3.10;;;;;;;9.46;54.57;101630.47;7399401;19;20029;-65
2023/05/09 06:20:12;;;;;;;6.15;3.38;;;;;;;9.41;54.18;101606.03;7396767;19;20070;-65
2023/05/09 06:22:40;;;;;;;4.35;3.08;;;;;;;9.64;53.88;101626.03;7408087;19;20111;-66
2023/05/09 06:25:10;;;;;;;6.10;3.45;;;;;;;9.70;53.54;101616.41;7407070;19;20456;-66
2023/05/09 06:27:38;;;;;;;7.93;3.38;;;;;;;9.80;53.16;101617.22;7410193;19;20508;-66
2023/05/09 06:30:09;;;;;;;5.20;3.15;;;;;;;9.89;52.18;101626.81;7399460;19;20074;-66
2023/05/09 06:32:40;;;;;;;5.38;3.40;;;;;;;9.94;52.00;101620.69;7396022;19;20427;-66
2023/05/09 06:35:09;;;;;;;4.05;2.95;;;;;;;10.02;52.18;101622.38;7396259;19;20489;-66
2023/05/09 06:37:37;;;;;;;5.50;3.28;;;;;;;10.08;51.81;101617.97;7395778;19;20094;-66
2023/05/09 06:40:28;;;;;;;3.90;2.88;;;;;;;10.17;51.35;101610.94;7397732;19;20014;-65
2023/05/09 06:42:56;;;;;;;5.13;3.20;;;;;;;10.20;50.88;101598.66;7397429;19;20102;-65
2023/05/09 06:45:25;;;;;;;5.03;3.40;;;;;;;10.29;50.89;101592.50;7395908;19;20082;-65
2023/05/09 06:47:56;;;;;;;3.53;2.60;;;;;;;10.35;50.43;101596.81;7397776;19;20095;-65
2023/05/09 06:50:25;;;;;;;6.28;3.72;;;;;;;10.40;50.40;101589.81;7395159;19;20074;-68
2023/05/09 06:52:53;;;;;;;5.05;2.83;;;;;;;10.47;50.19;101590.66;7395909;19;20584;-65
2023/05/09 06:55:22;;;;;;;5.72;3.50;;;;;;;10.48;50.15;101582.75;7396409;19;20043;-66
2023/05/09 06:57:50;;;;;;;5.43;3.10;;;;;;;10.59;49.91;101580.06;7397785;19;20026;-65
2023/05/09 07:00:19;;;;;;;6.18;2.75;;;;;;;10.64;49.60;101577.38;7396914;19;20095;-67
2023/05/09 07:02:48;;;;;;;7.18;3.70;;;;;;;10.72;49.91;101572.94;7395852;19;20022;-66
2023/05/09 07:05:19;;;;;;;5.55;3.55;;;;;;;10.81;49.50;101572.84;7395887;19;20517;-66
2023/05/09 07:07:47;;;;;;;3.63;2.70;;;;;;;10.87;48.42;101575.44;7395894;19;20022;-65
2023/05/09 07:10:16;;;;;;;4.68;2.53;;;;;;;10.95;48.97;101569.22;7395821;19;20035;-66
2023/05/09 07:12:44;;;;;;;8.77;3.17;;;;;;;11.01;48.67;101572.66;7396986;19;20070;-65
2023/05/09 07:15:13;;;;;;;5.80;2.70;;;;;;;11.09;48.54;101564.69;7398048;19;20074;-65
2023/05/09 07:17:42;;;;;;;5.15;3.50;;;;;;;11.16;48.27;101569.00;7397881;19;20015;-66
2023/05/09 07:20:11;;;;;;;8.82;3.78;;;;;;;11.21;48.22;101558.47;7397723;19;20081;-66
2023/05/09 07:22:57;;;;;;;5.88;2.92;;;;;;;11.29;48.10;101561.00;7397459;19;20066;-65
2023/05/09 07:25:25;;;;;;;5.00;2.92;;;;;;;11.35;48.26;101553.91;7397053;19;20027;-67
2023/05/09 07:27:54;;;;;;;4.45;3.00;;;;;;;11.43;48.41;101556.44;7396940;19;20081;-67
2023/05/09 07:30:22;;;;;;;4.90;2.97;;;;;;;11.52;48.20;101563.34;7395485;19;20078;-66
2023/05/09 07:32:51;;;;;;;6.30;2.92;;;;;;;11.61;48.08;101567.59;7394913;19;20018;-66
2023/05/09 07:35:20;;;;;;;4.25;2.92;;;;;;;11.63;47.83;101557.94;7396376;19;20094;-66
2023/05/09 07:37:51;;;;;;;5.35;3.17;;;;;;;11.74;47.93;101559.53;7396872;19;20015;-65
2023/05/09 07:40:19;;;;;;;4.32;2.85;;;;;;;11.82;47.99;101546.28;7401007;19;20014;-66
2023/05/09 07:42:48;;;;;;;4.68;2.60;;;;;;;11.89;48.03;101537.41;7404177;19;20014;-66
2023/05/09 07:45:17;;;;;;;7.25;2.67;;;;;;;11.96;48.04;101538.22;7404392;19;20014;-65
2023/05/09 07:47:45;;;;;;;5.88;2.78;;;;;;;12.03;47.73;101533.72;7406859;19;20026;-65
2023/05/09 07:50:15;;;;;;;5.82;2.88;;;;;;;12.09;47.25;101536.28;7402467;19;20018;-66
2023/05/09 07:52:44;;;;;;;5.93;3.40;;;;;;;12.17;47.43;101537.03;7395398;19;20033;-67
2023/05/09 07:55:15;;;;;;;5.78;3.15;;;;;;;12.26;47.29;101529.88;7396077;19;20027;-66
2023/05/09 07:57:43;;;;;;;5.28;3.40;;;;;;;12.32;47.36;101535.03;7394594;19;20090;-65
2023/05/09 08:00:13;;;;;;;5.03;2.88;;;;;;;12.36;47.01;101520.97;7393976;19;20019;-66
2023/05/09 08:02:42;;;;;;;4.53;2.55;;;;;;;12.43;47.12;101511.19;7393814;19;20386;-66
2023/05/09 08:05:12;;;;;;;9.85;4.00;;;;;;;12.47;46.93;101508.50;7395048;19;20010;-67
2023/05/09 08:07:40;;;;;;;5.68;3.38;;;;;;;12.54;46.91;101506.59;7394795;19;20513;-67
2023/05/09 08:10:11;;;;;;;4.18;3.22;;;;;;;12.58;46.85;101499.53;7394577;19;20019;-68
2023/05/09 08:12:42;;;;;;;7.20;3.92;;;;;;;12.62;46.80;101504.69;7395837;19;20015;-66
2023/05/09 08:15:11;;;;;;;3.47;3.05;;;;;;;12.70;46.51;101502.81;7397015;19;20086;-68
2023/05/09 08:17:39;;;;;;;6.07;3.10;;;;;;;12.75;46.62;101505.34;7394529;19;20082;-68
2023/05/09 08:20:10;;;;;;;4.88;3.00;;;;;;;12.81;46.30;101501.72;7393513;19;20078;-67
2023/05/09 08:22:51;;;;;;;6.43;3.05;;;;;;;12.88;45.78;101503.34;7392137;19;20477;-66
2023/05/09 08:25:19;;;;;;;3.55;2.70;;;;;;;12.95;45.77;101501.47;7393737;19;20011;-68
2023/05/09 08:27:50;;;;;;;4.43;2.40;;;;;;;12.99;43.43;101493.47;7393413;19;20082;-68
2023/05/09 08:30:19;;;;;;;4.10;2.65;;;;;;;13.06;44.22;101488.09;7395769;19;20018;-66
2023/05/09 08:32:48;;;;;;;6.57;2.45;;;;;;;13.12;44.08;101493.25;7393194;19;20091;-67
2023/05/09 08:35:16;;;;;;;4.60;2.75;;;;;;;13.19;43.77;101485.16;7396848;19;20021;-68
2023/05/09 08:37:46;;;;;;;4.00;2.30;;;;;;;13.28;43.15;101488.50;7395620;19;20015;-66
2023/05/09 08:40:15;;;;;;;4.18;2.75;;;;;;;13.36;42.79;101478.66;7395039;19;20019;-68
2023/05/09 08:42:47;;;;;;;4.10;2.67;;;;;;;13.44;42.57;101474.13;7396613;19;20018;-67
2023/05/09 08:45:27;;;;;;;3.03;2.00;;;;;;;13.54;41.04;101477.44;7400297;19;20010;-66
2023/05/09 08:47:56;;;;;;;3.97;2.55;;;;;;;13.63;41.52;101471.06;7400093;19;20027;-68
2023/05/09 08:50:25;;;;;;;2.90;2.60;;;;;;;13.71;41.24;101477.06;7400113;19;20021;-66
2023/05/09 08:52:54;;;;;;;4.80;2.58;;;;;;;13.77;41.18;101473.41;7399169;19;20485;-66
2023/05/09 08:55:23;;;;;;;3.35;2.67;;;;;;;13.83;40.90;101468.84;7401572;19;20525;-66
2023/05/09 08:57:53;;;;;;;5.97;2.30;;;;;;;13.88;40.46;101452.06;7399314;19;20078;-66
2023/05/09 09:00:25;;;;;;;4.28;2.13;;;;;;;14.00;39.90;101457.00;7399888;19;20035;-66
2023/05/09 09:02:55;;;;;;;3.88;2.10;;;;;;;14.06;40.08;101451.56;7403429;19;20018;-67
2023/05/09 09:05:25;;;;;;;4.28;1.90;;;;;;;14.11;39.79;101452.31;7399456;19;20014;-66
2023/05/09 09:07:54;;;;;;;2.90;2.10;;;;;;;14.17;39.75;101457.44;7399032;19;20074;-67
2023/05/09 09:10:24;;;;;;;3.63;2.47;;;;;;;14.25;39.46;101453.75;7401248;19;20014;-66
2023/05/09 09:12:56;;;;;;;2.78;2.10;;;;;;;14.35;38.87;101452.59;7400839;19;20025;-65
2023/05/09 09:15:31;;;;;;;4.80;2.30;;;;;;;14.36;38.58;101440.28;7402312;19;20081;-67
2023/05/09 09:18:05;;;;;;;3.13;2.08;;;;;;;14.50;38.36;101443.41;7399983;19;20086;-65
2023/05/09 09:20:36;;;;;;;4.60;2.10;;;;;;;14.56;36.86;101445.91;7403823;19;20007;-66
2023/05/09 09:23:18;;;;;;;4.10;2.10;;;;;;;14.64;36.47;101445.69;7402902;19;20126;-65
2023/05/09 09:25:48;;;;;;;5.35;2.00;;;;;;;14.56;36.83;101421.25;7405447;19;20027;-66
2023/05/09 09:28:17;;;;;;;3.58;1.90;;;;;;;14.80;36.98;101436.44;7402194;19;20093;-66
2023/05/09 09:30:49;;;;;;;5.38;2.22;;;;;;;14.88;35.99;101435.38;7399571;19;20018;-66
2023/05/09 09:33:22;;;;;;;3.13;1.95;;;;;;;14.95;36.09;101428.97;7402564;19;20019;-66
2023/05/09 09:35:51;;;;;;;2.25;1.77;;;;;;;15.01;36.83;101436.72;7400880;19;20018;-67
2023/05/09 09:38:20;;;;;;;3.97;2.10;;;;;;;15.07;36.56;101420.69;7398291;19;20504;-65
2023/05/09 09:40:56;;;;;;;4.22;2.13;;;;;;;15.13;35.80;101433.75;7400734;19;20379;-66
2023/05/09 09:43:29;;;;;;;2.63;1.98;;;;;;;15.15;35.63;101415.19;7400420;19;20022;-66
2023/05/09 09:46:02;;;;;;;4.30;1.88;;;;;;;15.26;34.56;101421.00;7398212;19;20010;-67
2023/05/09 09:48:34;;;;;;;4.18;1.65;;;;;;;15.30;35.54;101405.91;7401586;19;20018;-66
2023/05/09 09:51:11;;;;;;;4.60;2.30;;;;;;;15.31;35.40;101399.72;7399346;19;20035;-67
2023/05/09 09:53:45;;;;;;;4.70;2.03;;;;;;;15.42;34.75;101397.63;7395308;19;20355;-67
2023/05/09 09:56:14;;;;;;;5.90;1.85;;;;;;;15.50;34.81;101400.00;7400210;19;20011;-66
2023/05/09 09:58:42;;;;;;;6.75;2.00;;;;;;;15.57;34.46;101398.03;7397884;19;20086;-66
2023/05/09 10:01:15;;;;;;;2.90;1.70;;;;;;;15.63;34.19;101384.59;7397603;19;20425;-67
2023/05/09 10:03:45;;;;;;;4.93;2.03;;;;;;;15.66;34.16;101387.16;7400740;19;20025;-67
2023/05/09 10:06:15;;;;;;;4.15;1.90;;;;;;;15.71;34.03;101390.53;7396864;19;20481;-67
2023/05/09 10:08:47;;;;;;;5.32;1.60;;;;;;;15.77;34.06;101386.78;7397672;19;20078;-65
2023/05/09 10:11:16;;;;;;;8.43;2.55;;;;;;;15.84;33.46;101377.78;7396736;19;20013;-66
2023/05/09 10:13:46;;;;;;;2.30;1.70;;;;;;;15.89;32.90;101372.34;7397241;19;20030;-67
2023/05/09 10:16:18;;;;;;;3.83;1.85;;;;;;;15.96;32.90;101373.84;7398438;19;20549;-65
2023/05/09 10:18:46;;;;;;;4.85;2.30;;;;;;;16.03;32.83;101356.00;7396741;19;20440;-67
2023/05/09 10:21:17;;;;;;;4.00;2.67;;;;;;;16.11;33.38;101369.81;7399321;19;20015;-67
2023/05/09 10:23:51;;;;;;;5.68;2.53;;;;;;;16.14;32.66;101364.41;7396691;19;20073;-66
2023/05/09 10:26:26;;;;;;;4.18;1.88;;;;;;;16.23;32.76;101361.44;7396487;19;20019;-66
2023/05/09 10:28:57;;;;;;;2.38;1.95;;;;;;;16.27;32.31;101356.91;7397871;19;20019;-66
2023/05/09 10:31:30;;;;;;;2.25;1.67;;;;;;;16.31;31.13;101345.28;7396503;19;20498;-67
2023/05/09 10:33:58;;;;;;;4.03;2.20;;;;;;;16.35;31.82;101353.97;7397443;19;20470;-67
2023/05/09 10:36:27;;;;;;;2.15;1.73;;;;;;;16.41;32.42;101356.41;7397296;19;20022;-66
2023/05/09 10:38:56;;;;;;;3.40;2.15;;;;;;;16.49;32.31;101358.75;7397523;19;20011;-66
2023/05/09 10:41:25;;;;;;;2.75;1.42;;;;;;;16.50;31.80;101344.59;7397868;19;20086;-67
2023/05/09 10:43:57;;;;;;;3.47;1.80;;;;;;;16.54;31.96;101351.50;7397175;19;20022;-66
2023/05/09 10:46:28;;;;;;;4.97;2.22;;;;;;;16.57;30.99;101341.66;7399234;19;20075;-67
2023/05/09 10:48:57;;;;;;;3.60;1.92;;;;;;;16.64;31.31;101337.00;7398117;19;20090;-67
2023/05/09 10:51:26;;;;;;;5.85;1.98;;;;;;;16.69;31.23;101335.03;7398736;19;20433;-67
2023/05/09 10:53:55;;;;;;;5.13;1.92;;;;;;;16.73;31.35;101326.06;7396078;19;20015;-66
2023/05/09 10:56:28;;;;;;;3.67;2.05;;;;;;;16.78;31.07;101313.50;7396735;19;20015;-66
2023/05/09 10:58:57;;;;;;;3.33;1.73;;;;;;;16.90;31.11;101311.31;7397177;19;20018;-64
2023/05/09 11:01:38;;;;;;;4.30;1.90;;;;;;;16.98;30.20;101319.81;7396312;19;20485;-66
2023/05/09 11:04:13;;;;;;;2.33;1.90;;;;;;;17.04;30.19;101298.38;7396561;19;20015;-67
2023/05/09 11:06:44;;;;;;;4.22;1.80;;;;;;;17.16;30.90;101299.69;7395660;19;20497;-65
2023/05/09 11:09:32;;;;;;;6.10;1.88;;;;;;;17.26;29.77;101298.38;7395987;19;20019;-66
2023/05/09 11:12:03;;;;;;;4.00;1.95;;;;;;;17.35;30.40;101286.53;7396070;19;20022;-66
2023/05/09 11:14:33;;;;;;;4.88;1.90;;;;;;;17.38;30.04;101289.06;7398115;19;20019;-66
2023/05/09 11:17:05;;;;;;;3.75;1.90;;;;;;;17.43;29.22;101281.75;7396639;19;20111;-66
2023/05/09 11:19:38;;;;;;;3.25;1.88;;;;;;;17.49;29.43;101278.00;7396251;19;20027;-66
2023/05/09 11:22:15;;;;;;;3.35;1.95;;;;;;;17.56;29.51;101283.91;7394856;19;20086;-66
2023/05/09 11:24:48;;;;;;;4.13;2.22;;;;;;;17.66;29.77;101271.97;7394258;19;20006;-65
2023/05/09 11:27:17;;;;;;;4.65;2.13;;;;;;;17.78;29.82;101261.75;7397282;19;20022;-66
2023/05/09 11:29:47;;;;;;;5.97;3.15;;;;;;;17.89;29.95;101254.16;7395014;19;20027;-67
2023/05/09 11:32:18;;;;;;;4.20;2.20;;;;;;;17.99;29.80;101250.19;7395048;19;20010;-66
2023/05/09 11:34:48;;;;;;;10.07;2.25;;;;;;;18.13;29.37;101249.59;7394866;19;20047;-65
2023/05/09 11:37:19;;;;;;;17.67;5.05;;;;;;;18.27;29.71;101240.97;7396292;19;20032;-66
2023/05/09 11:39:58;;;;;;;7.68;3.75;;;;;;;18.40;28.06;101220.91;7395411;19;20049;-65
2023/05/09 11:42:27;;;;;;;4.97;2.92;;;;;;;18.54;29.06;101236.19;7396163;19;20017;-66
2023/05/09 11:44:57;;;;;;;7.57;4.82;;;;;;;18.67;28.63;101223.16;7396299;19;20018;-66